Time;durP1;ratioP1;P1;durP2;ratioP2;P2;SDS_P1;SDS_P2;PMS_P1;PMS_P2;Temp;Humidity;BMP_temperature;BMP_pressure;BME280_temperature;BME280_humidity;BME280_pressure;Samples;Min_cycle;Max_cycle;Signal;HPM_P1;HPM_P2
2023/12/29 00:00:10;;;;;;;10.77;5.87;;;10.00;99.90;;;;;;5050748;28;20466;-74
2023/12/29 00:02:55;;;;;;;7.90;6.17;;;10.10;99.90;;;;;;5053774;28;20974;-74
2023/12/29 00:05:43;;;;;;;8.20;5.43;;;10.10;99.90;;;;;;5065378;28;20775;-74
2023/12/29 00:08:28;;;;;;;7.53;5.63;;;10.00;99.90;;;;;;5048342;28;20968;-74
2023/12/29 00:11:18;;;;;;;8.70;5.10;;;10.00;99.90;;;;;;5044516;28;21055;-74
2023/12/29 00:14:04;;;;;;;10.70;5.70;;;10.00;99.90;;;;;;5057446;28;20495;-74
2023/12/29 00:16:50;;;;;;;6.70;5.80;;;10.10;99.90;;;;;;5050846;28;20951;-74
2023/12/29 00:19:35;;;;;;;8.03;5.20;;;10.00;99.90;;;;;;5055889;28;20539;-74
2023/12/29 00:22:23;;;;;;;8.80;6.10;;;10.10;99.90;;;;;;5047155;28;20819;-74
2023/12/29 00:25:09;;;;;;;6.23;5.10;;;10.10;99.90;;;;;;5052419;28;20454;-74
2023/12/29 00:27:55;;;;;;;6.23;5.43;;;10.00;99.90;;;;;;5057767;28;20615;-74
2023/12/29 00:30:41;;;;;;;6.87;5.57;;;9.90;99.90;;;;;;5055984;28;20485;-74
2023/12/29 00:33:26;;;;;;;7.53;5.07;;;9.90;99.90;;;;;;5060129;28;20531;-74
2023/12/29 00:36:16;;;;;;;8.77;5.50;;;9.90;99.90;;;;;;5052443;28;20441;-74
2023/12/29 00:39:03;;;;;;;8.60;5.00;;;9.90;99.90;;;;;;5052847;28;20764;-74
2023/12/29 00:41:49;;;;;;;8.37;6.27;;;10.00;99.90;;;;;;5056510;28;20473;-74
2023/12/29 00:44:35;;;;;;;6.37;4.70;;;9.90;99.90;;;;;;5058156;28;20997;-73
2023/12/29 00:47:23;;;;;;;7.03;5.33;;;10.00;99.90;;;;;;5052653;28;20474;-74
2023/12/29 00:50:09;;;;;;;8.63;5.43;;;10.00;99.90;;;;;;5053097;28;20881;-74
2023/12/29 00:52:54;;;;;;;8.50;4.30;;;10.00;99.90;;;;;;5050527;28;20909;-74
2023/12/29 00:55:41;;;;;;;5.87;4.53;;;10.00;99.90;;;;;;5049387;28;20457;-73
2023/12/29 00:58:27;;;;;;;4.77;4.27;;;10.00;99.90;;;;;;5046892;28;20514;-74
2023/12/29 01:01:12;;;;;;;5.60;4.70;;;10.00;99.90;;;;;;5047829;28;20462;-74
2023/12/29 01:03:58;;;;;;;7.93;5.90;;;10.00;99.90;;;;;;5048247;28;20562;-74
2023/12/29 01:06:44;;;;;;;6.73;4.80;;;10.00;99.90;;;;;;5051092;28;20473;-74
2023/12/29 01:09:30;;;;;;;6.73;5.00;;;10.10;99.90;;;;;;5046929;28;20488;-74
2023/12/29 01:12:17;;;;;;;6.43;5.23;;;10.00;99.90;;;;;;5045790;28;20816;-74
2023/12/29 01:15:02;;;;;;;10.00;5.70;;;10.00;99.90;;;;;;5047658;28;20457;-73
2023/12/29 01:17:48;;;;;;;5.10;4.60;;;9.90;99.90;;;;;;5044050;28;20445;-74
2023/12/29 01:20:34;;;;;;;5.63;4.63;;;9.90;99.90;;;;;;5047090;28;20475;-73
2023/12/29 01:23:19;;;;;;;7.03;5.40;;;9.90;99.90;;;;;;5045254;28;20506;-74
2023/12/29 01:26:05;;;;;;;6.50;5.10;;;9.80;99.90;;;;;;5047956;28;20445;-74
2023/12/29 01:28:52;;;;;;;7.87;5.40;;;9.90;99.90;;;;;;5052290;28;20434;-74
2023/12/29 01:31:38;;;;;;;7.37;5.33;;;9.90;99.90;;;;;;5047498;28;20456;-74
2023/12/29 01:34:24;;;;;;;8.00;5.70;;;9.90;99.90;;;;;;5053718;28;20443;-74
2023/12/29 01:37:09;;;;;;;7.20;5.40;;;9.90;99.90;;;;;;5047887;28;20434;-74
2023/12/29 01:39:55;;;;;;;7.47;5.60;;;9.90;99.90;;;;;;5039147;28;20939;-74
2023/12/29 01:42:42;;;;;;;14.67;5.50;;;9.90;99.90;;;;;;5062512;28;20431;-74
2023/12/29 01:45:29;;;;;;;8.17;4.77;;;9.90;99.90;;;;;;5041978;28;20788;-74
2023/12/29 01:48:15;;;;;;;8.53;6.20;;;9.90;99.90;;;;;;5033499;28;20568;-74
2023/12/29 01:51:01;;;;;;;9.77;6.13;;;9.90;99.90;;;;;;5033200;28;20447;-74
2023/12/29 01:53:47;;;;;;;7.00;5.60;;;9.90;99.90;;;;;;5033574;28;20431;-73
2023/12/29 01:56:33;;;;;;;7.20;5.60;;;9.90;99.90;;;;;;5042177;28;21014;-74
2023/12/29 01:59:20;;;;;;;6.73;5.70;;;9.90;99.90;;;;;;5036834;28;20930;-74
2023/12/29 02:02:07;;;;;;;9.23;6.00;;;9.90;99.90;;;;;;5040239;28;20462;-74
2023/12/29 02:04:53;;;;;;;8.97;6.30;;;9.90;99.90;;;;;;5039894;28;20433;-74
2023/12/29 02:07:39;;;;;;;6.93;4.80;;;9.90;99.90;;;;;;5035510;28;20473;-74
2023/12/29 02:10:24;;;;;;;7.90;5.77;;;9.90;99.90;;;;;;5035536;28;20464;-74
2023/12/29 02:13:10;;;;;;;8.60;5.43;;;9.80;99.90;;;;;;5062227;28;20451;-74
2023/12/29 02:16:01;;;;;;;11.20;5.53;;;9.90;99.90;;;;;;5046256;28;20515;-74
2023/12/29 02:18:49;;;;;;;7.40;4.93;;;9.90;99.90;;;;;;5051369;28;20443;-74
2023/12/29 02:21:35;;;;;;;6.13;5.50;;;9.80;99.90;;;;;;5042959;28;20469;-74
2023/12/29 02:24:21;;;;;;;6.07;4.47;;;9.80;99.90;;;;;;5042454;28;20459;-74
2023/12/29 02:27:22;;;;;;;9.43;5.37;;;9.90;99.90;;;;;;5040518;28;20572;-74
2023/12/29 02:30:13;;;;;;;10.30;5.63;;;9.90;99.90;;;;;;5061458;28;20502;-73
2023/12/29 02:33:02;;;;;;;5.90;5.27;;;9.90;99.90;;;;;;5042492;28;20427;-74
2023/12/29 02:35:50;;;;;;;8.10;4.87;;;10.00;99.90;;;;;;5044799;28;20911;-73
2023/12/29 02:38:36;;;;;;;6.63;5.17;;;9.90;99.90;;;;;;5040345;28;20468;-73
2023/12/29 02:41:22;;;;;;;6.83;5.40;;;9.90;99.90;;;;;;5040952;28;20983;-74
2023/12/29 02:44:09;;;;;;;6.80;5.33;;;9.90;99.90;;;;;;5040714;28;20437;-74
2023/12/29 02:46:54;;;;;;;7.17;4.80;;;9.90;99.90;;;;;;5046949;28;20482;-74
2023/12/29 02:49:40;;;;;;;5.37;4.43;;;9.90;99.90;;;;;;5046735;28;20427;-74
2023/12/29 02:52:25;;;;;;;6.73;5.33;;;9.90;99.90;;;;;;5054389;28;20512;-73
2023/12/29 02:55:11;;;;;;;6.47;4.10;;;9.90;99.90;;;;;;5060934;28;20428;-74
2023/12/29 02:57:57;;;;;;;5.63;4.80;;;9.90;99.90;;;;;;5046010;28;20549;-74
2023/12/29 03:00:44;;;;;;;6.97;5.20;;;9.90;99.90;;;;;;5048479;28;20453;-74
2023/12/29 03:03:29;;;;;;;5.63;4.50;;;9.90;99.90;;;;;;5063560;28;20433;-74
2023/12/29 03:06:15;;;;;;;8.17;4.80;;;9.90;99.90;;;;;;5043604;28;20439;-73
2023/12/29 03:09:00;;;;;;;6.67;3.93;;;9.90;99.90;;;;;;5045726;28;20503;-74
2023/12/29 03:11:46;;;;;;;4.70;4.20;;;9.90;99.90;;;;;;5069969;28;20785;-74
2023/12/29 03:14:32;;;;;;;4.93;4.20;;;9.90;99.90;;;;;;5055227;28;20400;-73
2023/12/29 03:17:19;;;;;;;5.63;3.60;;;9.90;99.90;;;;;;5039681;28;20431;-74
2023/12/29 03:20:06;;;;;;;7.90;3.87;;;9.80;99.90;;;;;;5040384;28;20450;-74
2023/12/29 03:22:52;;;;;;;6.17;3.87;;;9.80;99.90;;;;;;5053961;28;20934;-74
2023/12/29 03:25:38;;;;;;;6.30;4.00;;;9.80;99.90;;;;;;5048681;28;20408;-74
2023/12/29 03:28:23;;;;;;;5.47;4.40;;;9.80;99.90;;;;;;5041311;28;20483;-74
2023/12/29 03:31:09;;;;;;;5.03;3.70;;;9.90;99.90;;;;;;5051677;28;20473;-74
2023/12/29 03:33:56;;;;;;;5.27;3.90;;;9.90;99.90;;;;;;5056183;28;20593;-74
2023/12/29 03:36:41;;;;;;;4.73;3.07;;;9.90;99.90;;;;;;5059653;28;21003;-74
2023/12/29 03:39:27;;;;;;;4.47;3.63;;;9.90;99.90;;;;;;5055419;28;20412;-74
2023/12/29 03:42:13;;;;;;;5.23;3.40;;;10.00;99.90;;;;;;5053834;28;20478;-74
2023/12/29 03:44:59;;;;;;;3.90;3.17;;;10.00;99.90;;;;;;5042610;28;20433;-74
2023/12/29 03:47:44;;;;;;;6.90;3.33;;;10.00;99.90;;;;;;5060214;28;20451;-74
2023/12/29 03:50:31;;;;;;;3.70;3.07;;;10.10;99.90;;;;;;5054918;28;20427;-74
2023/12/29 03:53:16;;;;;;;4.70;3.50;;;10.00;99.90;;;;;;5043105;28;20816;-74
2023/12/29 03:56:06;;;;;;;5.57;3.60;;;10.10;99.90;;;;;;5042964;28;20928;-74
2023/12/29 03:58:51;;;;;;;4.90;3.10;;;10.10;99.90;;;;;;5053584;28;20406;-74
2023/12/29 04:01:37;;;;;;;7.70;3.57;;;10.10;99.90;;;;;;5061670;28;20461;-74
2023/12/29 04:04:23;;;;;;;4.80;3.13;;;10.10;99.90;;;;;;5054804;28;20547;-74
2023/12/29 04:07:10;;;;;;;6.93;3.67;;;10.10;99.90;;;;;;5048240;28;20428;-74
2023/12/29 04:09:55;;;;;;;5.40;3.40;;;10.10;99.90;;;;;;5039578;28;20498;-74
2023/12/29 04:12:41;;;;;;;4.20;3.00;;;10.20;99.90;;;;;;5039763;28;20859;-74
2023/12/29 04:15:27;;;;;;;7.60;3.20;;;10.20;99.90;;;;;;5046196;28;20458;-73
2023/12/29 04:18:12;;;;;;;4.37;3.13;;;10.10;99.90;;;;;;5039833;28;20436;-74
2023/12/29 04:20:58;;;;;;;4.40;2.93;;;10.10;99.90;;;;;;5038436;28;20770;-74
2023/12/29 04:23:45;;;;;;;6.33;3.40;;;10.10;99.90;;;;;;5060184;28;20845;-73
2023/12/29 04:26:30;;;;;;;4.33;2.97;;;10.10;99.90;;;;;;5044818;28;20438;-72
2023/12/29 04:29:16;;;;;;;9.13;3.70;;;10.10;99.90;;;;;;5040936;28;20837;-73
2023/12/29 04:32:02;;;;;;;4.20;3.37;;;10.10;99.90;;;;;;5052732;28;20498;-73
2023/12/29 04:34:47;;;;;;;4.33;3.20;;;10.10;99.90;;;;;;5053411;28;20439;-73
2023/12/29 04:37:33;;;;;;;4.83;3.60;;;10.10;99.90;;;;;;5045020;28;20432;-73
2023/12/29 04:40:20;;;;;;;12.07;3.90;;;10.10;99.90;;;;;;5065411;28;20457;-73
2023/12/29 04:43:06;;;;;;;4.13;3.50;;;10.00;99.90;;;;;;5047724;28;20477;-73
2023/12/29 04:45:52;;;;;;;6.13;3.83;;;10.00;99.90;;;;;;5053562;28;20936;-73
2023/12/29 04:48:38;;;;;;;5.23;4.23;;;9.90;99.90;;;;;;5048253;28;21103;-73
2023/12/29 04:51:23;;;;;;;5.53;3.97;;;10.00;99.90;;;;;;5048208;28;20500;-73
2023/12/29 04:54:09;;;;;;;4.83;3.73;;;9.90;99.90;;;;;;5053560;28;20498;-73
2023/12/29 04:56:56;;;;;;;5.30;4.67;;;9.90;99.90;;;;;;5053469;28;20565;-73
2023/12/29 04:59:42;;;;;;;6.53;4.40;;;9.80;99.90;;;;;;5060088;28;20396;-73
2023/12/29 05:02:27;;;;;;;5.57;4.57;;;9.80;99.90;;;;;;5057032;28;20447;-72
2023/12/29 05:05:13;;;;;;;6.17;3.87;;;9.80;99.90;;;;;;5051832;28;20426;-73
2023/12/29 05:07:58;;;;;;;5.80;4.30;;;9.80;99.90;;;;;;5049182;28;20480;-73
2023/12/29 05:10:44;;;;;;;4.20;3.80;;;9.80;99.90;;;;;;5044418;28;20556;-73
2023/12/29 05:13:31;;;;;;;8.00;3.90;;;9.80;99.90;;;;;;5057681;28;20504;-73
2023/12/29 05:16:17;;;;;;;7.60;4.73;;;9.90;99.90;;;;;;5053267;28;20428;-73
2023/12/29 05:19:03;;;;;;;3.63;3.23;;;9.90;99.90;;;;;;5047219;28;20945;-73
2023/12/29 05:21:51;;;;;;;6.50;3.50;;;9.90;99.90;;;;;;5057383;28;21046;-73
2023/12/29 05:24:37;;;;;;;4.40;3.40;;;9.90;99.90;;;;;;5059753;28;20420;-73
2023/12/29 05:27:22;;;;;;;5.03;3.30;;;9.90;99.90;;;;;;5060356;28;20433;-73
2023/12/29 05:30:11;;;;;;;7.80;3.87;;;9.90;99.90;;;;;;5053173;28;20575;-73
2023/12/29 05:32:56;;;;;;;7.60;4.27;;;9.90;99.90;;;;;;5047222;28;20537;-72
2023/12/29 05:35:42;;;;;;;7.20;4.13;;;9.80;99.90;;;;;;5052771;28;20411;-72
2023/12/29 05:38:28;;;;;;;12.50;4.10;;;9.80;99.90;;;;;;5044637;28;20440;-73
2023/12/29 05:41:14;;;;;;;5.00;3.73;;;9.80;99.90;;;;;;5059276;28;20456;-73
2023/12/29 05:44:00;;;;;;;4.77;4.00;;;9.80;99.90;;;;;;5045328;28;20833;-73
2023/12/29 05:46:48;;;;;;;5.93;3.90;;;9.80;99.90;;;;;;5060057;28;20832;-73
2023/12/29 05:49:38;;;;;;;4.20;3.37;;;9.90;99.90;;;;;;5053015;28;20477;-73
2023/12/29 05:52:24;;;;;;;4.63;3.70;;;9.80;99.90;;;;;;5069142;28;20429;-73
2023/12/29 05:55:09;;;;;;;5.77;3.83;;;9.90;99.90;;;;;;5052266;28;20822;-73
2023/12/29 05:57:55;;;;;;;7.90;4.40;;;9.90;99.90;;;;;;5055447;28;20802;-73
2023/12/29 06:00:41;;;;;;;6.50;4.50;;;9.90;99.90;;;;;;5053539;28;20441;-73
2023/12/29 06:03:28;;;;;;;6.77;4.60;;;9.90;99.90;;;;;;5058021;28;20631;-73
2023/12/29 06:06:14;;;;;;;7.83;4.33;;;9.90;99.90;;;;;;5059168;28;20532;-73
2023/12/29 06:09:00;;;;;;;6.67;4.03;;;9.90;99.90;;;;;;5062497;28;20453;-72
2023/12/29 06:11:45;;;;;;;6.73;3.83;;;9.80;99.90;;;;;;5060888;28;20520;-73
2023/12/29 06:14:31;;;;;;;4.70;4.20;;;9.80;99.90;;;;;;5051377;28;20496;-73
2023/12/29 06:17:16;;;;;;;11.97;4.60;;;9.80;99.90;;;;;;5063815;28;20404;-73
2023/12/29 06:20:06;;;;;;;5.60;4.13;;;9.70;99.90;;;;;;5053925;28;20437;-73
2023/12/29 06:22:51;;;;;;;6.23;3.97;;;9.70;99.90;;;;;;5064357;28;20396;-73
2023/12/29 06:25:39;;;;;;;4.07;3.53;;;9.80;99.90;;;;;;5047635;28;20404;-73
2023/12/29 06:28:25;;;;;;;5.53;3.87;;;9.80;99.90;;;;;;5045170;28;20492;-73
2023/12/29 06:31:10;;;;;;;5.07;3.40;;;9.80;99.90;;;;;;5053589;28;20781;-73
2023/12/29 06:33:56;;;;;;;4.33;3.63;;;9.80;99.90;;;;;;5047822;28;20444;-73
2023/12/29 06:36:43;;;;;;;4.20;3.80;;;9.80;99.90;;;;;;5049536;28;20422;-73
2023/12/29 06:39:28;;;;;;;5.13;3.90;;;9.80;99.90;;;;;;5048626;28;20431;-74
2023/12/29 06:42:14;;;;;;;4.53;3.33;;;9.80;99.90;;;;;;5042709;28;20815;-73
2023/12/29 06:45:00;;;;;;;3.87;3.30;;;9.80;99.90;;;;;;5047593;28;20424;-73
2023/12/29 06:47:45;;;;;;;4.30;3.30;;;9.80;99.90;;;;;;5058589;28;20428;-73
2023/12/29 06:50:31;;;;;;;4.50;3.60;;;9.80;99.90;;;;;;5048185;28;20860;-73
2023/12/29 06:53:18;;;;;;;3.60;3.20;;;9.80;99.90;;;;;;5053466;28;20398;-73
2023/12/29 06:56:04;;;;;;;3.23;2.93;;;9.70;99.90;;;;;;5043449;28;20736;-73
2023/12/29 06:58:50;;;;;;;4.20;3.40;;;9.80;99.90;;;;;;5048572;28;20865;-73
2023/12/29 07:01:40;;;;;;;4.50;3.47;;;9.80;99.90;;;;;;5049023;28;20458;-73
2023/12/29 07:04:26;;;;;;;9.00;3.23;;;9.80;99.90;;;;;;5060330;28;20514;-73
2023/12/29 07:07:11;;;;;;;6.30;3.20;;;9.80;99.90;;;;;;5044334;28;20439;-73
2023/12/29 07:09:58;;;;;;;4.63;3.67;;;9.80;99.90;;;;;;5051443;28;20468;-73
2023/12/29 07:12:44;;;;;;;5.60;4.10;;;9.80;99.90;;;;;;5056342;28;20488;-73
2023/12/29 07:15:30;;;;;;;4.50;3.20;;;9.80;99.90;;;;;;5047809;28;20443;-73
2023/12/29 07:18:16;;;;;;;4.70;3.00;;;9.90;99.90;;;;;;5051454;28;20402;-73
2023/12/29 07:21:01;;;;;;;3.97;3.30;;;9.90;99.90;;;;;;5044727;28;20437;-73
2023/12/29 07:23:47;;;;;;;3.90;3.37;;;9.90;99.90;;;;;;5048465;28;21108;-73
2023/12/29 07:26:35;;;;;;;7.60;5.73;;;9.90;99.90;;;;;;5050466;28;20430;-72
2023/12/29 07:29:21;;;;;;;6.90;3.87;;;9.90;99.90;;;;;;5055419;28;20556;-72
2023/12/29 07:32:07;;;;;;;7.97;4.13;;;9.90;99.90;;;;;;5052443;28;20509;-73
2023/12/29 07:34:52;;;;;;;5.97;4.33;;;9.80;99.90;;;;;;5055496;28;20422;-73
2023/12/29 07:37:38;;;;;;;4.60;3.53;;;9.80;99.90;;;;;;5056589;28;20438;-73
2023/12/29 07:40:24;;;;;;;6.33;3.73;;;9.80;99.90;;;;;;5062139;28;20445;-73
2023/12/29 07:43:10;;;;;;;4.20;3.80;;;9.90;99.90;;;;;;5052450;28;20438;-73
2023/12/29 07:45:56;;;;;;;4.70;3.40;;;9.90;99.90;;;;;;5053085;28;20422;-73
2023/12/29 07:48:42;;;;;;;4.63;3.10;;;9.90;99.90;;;;;;5052770;28;20500;-73
2023/12/29 07:51:27;;;;;;;4.30;2.90;;;9.90;99.90;;;;;;5058118;28;20450;-73
2023/12/29 07:54:13;;;;;;;5.80;3.27;;;10.00;99.90;;;;;;5062317;28;21101;-73
2023/12/29 07:56:59;;;;;;;4.60;2.43;;;10.10;99.90;;;;;;5059778;28;20484;-73
2023/12/29 07:59:46;;;;;;;3.73;2.30;;;10.10;99.90;;;;;;5064176;28;20425;-73
2023/12/29 08:02:31;;;;;;;3.80;2.50;;;10.10;99.90;;;;;;5055854;28;20431;-73
2023/12/29 08:05:17;;;;;;;4.13;2.90;;;10.20;99.90;;;;;;5055339;28;20403;-73
2023/12/29 08:08:03;;;;;;;3.23;2.20;;;10.10;99.90;;;;;;5057790;28;20425;-73
2023/12/29 08:10:49;;;;;;;3.87;3.47;;;10.10;99.90;;;;;;5062464;28;20444;-73
2023/12/29 08:13:35;;;;;;;4.23;2.73;;;10.10;99.90;;;;;;5059398;28;20439;-73
2023/12/29 08:16:21;;;;;;;3.60;2.60;;;10.10;99.90;;;;;;5055453;28;20410;-73
2023/12/29 08:19:07;;;;;;;3.37;2.50;;;10.10;99.90;;;;;;5060244;28;20945;-73
2023/12/29 08:21:53;;;;;;;4.70;2.83;;;10.10;99.90;;;;;;5059232;28;20471;-73
2023/12/29 08:24:42;;;;;;;5.03;3.20;;;10.10;99.90;;;;;;5064259;28;20467;-73
2023/12/29 08:27:28;;;;;;;4.80;2.80;;;10.10;99.90;;;;;;5052112;28;20897;-73
2023/12/29 08:30:14;;;;;;;4.23;3.00;;;10.10;99.90;;;;;;5051360;28;20554;-73
2023/12/29 08:33:01;;;;;;;6.13;3.13;;;10.10;99.90;;;;;;5057580;28;20433;-73
2023/12/29 08:35:47;;;;;;;3.90;3.10;;;10.20;99.90;;;;;;5057128;28;20395;-73
2023/12/29 08:38:32;;;;;;;4.57;3.00;;;10.20;99.90;;;;;;5054139;28;20426;-72
2023/12/29 08:41:18;;;;;;;3.47;2.57;;;10.20;99.90;;;;;;5064586;28;21065;-73
2023/12/29 08:44:04;;;;;;;4.70;2.80;;;10.20;99.90;;;;;;5059953;28;20792;-73
2023/12/29 08:46:50;;;;;;;6.67;3.37;;;10.30;99.90;;;;;;5065750;28;20429;-73
2023/12/29 08:49:37;;;;;;;5.80;3.13;;;10.20;99.90;;;;;;5056564;28;20481;-73
2023/12/29 08:52:23;;;;;;;4.30;2.70;;;10.20;99.90;;;;;;5052494;28;20400;-73
2023/12/29 08:55:09;;;;;;;4.90;2.90;;;10.30;99.90;;;;;;5058062;28;20497;-73
2023/12/29 08:57:55;;;;;;;3.00;2.07;;;10.20;99.90;;;;;;5053969;28;20403;-73
2023/12/29 09:00:41;;;;;;;3.33;2.70;;;10.20;99.90;;;;;;5057117;28;20561;-73
2023/12/29 09:03:27;;;;;;;5.60;2.90;;;10.30;99.90;;;;;;5064002;28;20423;-74
2023/12/29 09:06:14;;;;;;;6.40;2.93;;;10.30;99.90;;;;;;5057707;28;20998;-73
2023/12/29 09:09:00;;;;;;;4.60;2.93;;;10.30;99.90;;;;;;5061582;28;20574;-73
2023/12/29 09:11:47;;;;;;;3.17;2.43;;;10.30;99.90;;;;;;5050132;28;20948;-73
2023/12/29 09:14:34;;;;;;;7.97;2.40;;;10.40;99.90;;;;;;5064307;28;20525;-73
2023/12/29 09:17:19;;;;;;;3.27;2.30;;;10.40;99.90;;;;;;5065952;28;20563;-73
2023/12/29 09:20:07;;;;;;;3.03;2.10;;;10.50;99.90;;;;;;5064294;28;20936;-73
2023/12/29 09:22:55;;;;;;;6.73;2.57;;;10.50;99.90;;;;;;5054681;28;20434;-73
2023/12/29 09:25:41;;;;;;;7.40;2.17;;;10.50;99.90;;;;;;5064620;28;20426;-73
2023/12/29 09:28:27;;;;;;;3.03;1.97;;;10.60;99.90;;;;;;5053724;28;20439;-73
2023/12/29 09:31:13;;;;;;;4.80;2.30;;;10.60;99.90;;;;;;5060825;28;20791;-73
2023/12/29 09:34:00;;;;;;;3.70;2.17;;;10.60;99.90;;;;;;5050767;28;20823;-73
2023/12/29 09:36:45;;;;;;;8.60;2.20;;;10.60;99.90;;;;;;5060326;28;20400;-73
2023/12/29 09:39:33;;;;;;;4.43;2.70;;;10.60;99.90;;;;;;5056203;28;20506;-73
2023/12/29 09:42:22;;;;;;;3.30;2.10;;;10.60;99.90;;;;;;5054699;28;20397;-73
2023/12/29 09:45:12;;;;;;;3.20;2.13;;;10.60;99.90;;;;;;5063998;28;20430;-73
2023/12/29 09:47:59;;;;;;;5.10;2.07;;;10.60;99.90;;;;;;5065711;28;20871;-73
2023/12/29 09:50:45;;;;;;;3.90;2.07;;;10.60;99.90;;;;;;5045382;28;21043;-73
2023/12/29 09:53:32;;;;;;;2.60;1.80;;;10.60;99.90;;;;;;5054353;28;20442;-73
2023/12/29 09:56:20;;;;;;;3.93;2.93;;;10.70;99.90;;;;;;5053489;28;20476;-73
2023/12/29 09:59:05;;;;;;;3.87;2.60;;;10.70;99.90;;;;;;5060431;28;20580;-73
2023/12/29 10:01:52;;;;;;;7.70;2.20;;;10.70;99.90;;;;;;5057789;28;20461;-73
2023/12/29 10:04:37;;;;;;;4.33;2.10;;;10.70;99.90;;;;;;5064197;28;20434;-73
2023/12/29 10:07:26;;;;;;;2.77;1.90;;;10.70;99.90;;;;;;5054054;28;21134;-73
2023/12/29 10:10:16;;;;;;;2.93;1.93;;;10.80;99.90;;;;;;5052825;28;20476;-73
2023/12/29 10:13:07;;;;;;;5.37;2.60;;;10.70;99.90;;;;;;5055484;28;20993;-73
2023/12/29 10:15:59;;;;;;;4.33;2.13;;;10.80;99.90;;;;;;5051965;28;20446;-73
2023/12/29 10:18:55;;;;;;;4.00;1.90;;;10.90;99.90;;;;;;5052844;28;20845;-73
2023/12/29 10:21:49;;;;;;;2.90;2.50;;;10.90;99.90;;;;;;5057298;28;20560;-73
2023/12/29 10:24:36;;;;;;;4.70;2.07;;;11.00;99.90;;;;;;5056723;28;20428;-74
2023/12/29 10:27:22;;;;;;;5.20;1.90;;;11.20;99.90;;;;;;5059522;28;20744;-75
2023/12/29 10:30:12;;;;;;;4.87;2.30;;;11.20;99.90;;;;;;5056073;28;20481;-74
2023/12/29 10:33:00;;;;;;;3.30;2.03;;;11.20;99.90;;;;;;5060136;28;20792;-75
2023/12/29 10:35:58;;;;;;;3.43;2.30;;;11.10;99.90;;;;;;5058338;28;20443;-74
2023/12/29 10:38:44;;;;;;;3.60;2.47;;;11.10;99.90;;;;;;5070482;28;20494;-74
2023/12/29 10:41:30;;;;;;;3.00;2.03;;;11.10;99.90;;;;;;5056089;28;20513;-74
2023/12/29 10:44:15;;;;;;;2.10;1.70;;;11.10;99.90;;;;;;5058431;28;20891;-75
2023/12/29 10:47:10;;;;;;;4.40;1.70;;;11.10;99.90;;;;;;5060338;28;21253;-75
2023/12/29 10:49:59;;;;;;;3.53;1.60;;;11.00;99.90;;;;;;5062910;28;21048;-75
2023/12/29 10:52:46;;;;;;;2.67;1.80;;;11.00;99.90;;;;;;5052346;28;20483;-75
2023/12/29 10:55:33;;;;;;;2.37;1.60;;;11.10;99.90;;;;;;5056871;28;20444;-75
2023/12/29 10:58:19;;;;;;;2.70;1.87;;;11.10;99.90;;;;;;5065039;28;20432;-75
2023/12/29 11:01:18;;;;;;;3.37;2.00;;;11.10;99.90;;;;;;5064765;28;20465;-75
2023/12/29 11:04:09;;;;;;;3.37;2.00;;;11.10;99.90;;;;;;5059402;28;20480;-75
2023/12/29 11:06:54;;;;;;;4.00;2.57;;;11.10;99.90;;;;;;5052145;28;20418;-75
2023/12/29 11:09:41;;;;;;;3.87;2.33;;;11.10;99.90;;;;;;5059148;28;20548;-75
2023/12/29 11:12:26;;;;;;;3.90;2.13;;;11.10;99.90;;;;;;5058110;28;20435;-73
2023/12/29 11:15:15;;;;;;;4.53;1.60;;;11.20;99.90;;;;;;5067001;28;20420;-72
2023/12/29 11:18:02;;;;;;;3.13;1.90;;;11.20;99.90;;;;;;5057605;28;20429;-72
2023/12/29 11:20:50;;;;;;;4.73;2.07;;;11.20;99.90;;;;;;5053582;28;20487;-72
2023/12/29 11:23:35;;;;;;;2.70;1.80;;;11.10;99.90;;;;;;5063508;28;20434;-72
2023/12/29 11:26:22;;;;;;;4.27;1.77;;;11.10;99.90;;;;;;5062674;28;20526;-72
2023/12/29 11:29:09;;;;;;;3.13;1.90;;;11.10;99.90;;;;;;5068054;28;20482;-73
2023/12/29 11:31:56;;;;;;;3.20;1.90;;;11.20;99.90;;;;;;5058431;28;20942;-73
2023/12/29 11:34:48;;;;;;;3.30;1.90;;;11.20;99.90;;;;;;5068198;28;20541;-73
2023/12/29 11:37:52;;;;;;;7.20;2.00;;;11.10;99.90;;;;;;5066022;28;20439;-72
2023/12/29 11:40:45;;;;;;;3.60;1.60;;;11.20;99.90;;;;;;5067649;28;20437;-72
2023/12/29 11:43:31;;;;;;;3.77;2.03;;;11.20;99.90;;;;;;5063567;28;20506;-73
2023/12/29 11:46:44;;;;;;;4.63;1.93;;;11.20;99.90;;;;;;5058835;28;20619;-73
2023/12/29 11:50:00;;;;;;;3.67;1.50;;;11.20;99.90;;;;;;5027820;28;20451;-72
2023/12/29 11:52:47;;;;;;;4.13;1.73;;;11.20;99.90;;;;;;5052430;28;20935;-73
2023/12/29 11:55:37;;;;;;;2.80;1.50;;;11.30;99.90;;;;;;5061237;28;20406;-72
2023/12/29 11:58:28;;;;;;;2.60;1.33;;;11.30;99.90;;;;;;5061304;28;20426;-73
2023/12/29 12:01:13;;;;;;;2.90;1.63;;;11.40;99.90;;;;;;5061302;28;20610;-73
2023/12/29 12:03:59;;;;;;;2.80;1.70;;;11.40;99.90;;;;;;5059106;28;21007;-73
2023/12/29 12:06:45;;;;;;;3.80;1.80;;;11.30;99.90;;;;;;5057574;28;20430;-73
2023/12/29 12:09:34;;;;;;;3.10;1.67;;;11.40;99.90;;;;;;5055047;28;20432;-73
2023/12/29 12:12:41;;;;;;;10.53;1.80;;;11.40;99.90;;;;;;5066713;28;20886;-73
2023/12/29 12:15:33;;;;;;;4.67;2.20;;;11.40;99.90;;;;;;5058463;28;20578;-73
2023/12/29 12:18:19;;;;;;;4.20;1.83;;;11.40;99.90;;;;;;5060128;28;20444;-73
2023/12/29 12:21:05;;;;;;;3.10;1.60;;;11.40;99.90;;;;;;5065898;28;20824;-72
2023/12/29 12:23:53;;;;;;;4.10;1.40;;;11.50;99.90;;;;;;5065399;28;20430;-73
2023/12/29 12:26:41;;;;;;;1.87;1.10;;;11.50;99.90;;;;;;5064571;28;20569;-73
2023/12/29 12:29:27;;;;;;;4.07;1.50;;;11.60;99.90;;;;;;5059608;28;20545;-73
2023/12/29 12:32:17;;;;;;;2.10;1.20;;;11.60;99.90;;;;;;5063943;28;20422;-73
2023/12/29 12:35:03;;;;;;;4.47;1.30;;;11.60;99.90;;;;;;5060087;28;20948;-73
2023/12/29 12:37:49;;;;;;;2.73;1.30;;;11.70;99.90;;;;;;5072505;28;20426;-73
2023/12/29 12:40:34;;;;;;;3.30;1.33;;;11.60;99.90;;;;;;5065438;28;20439;-73
2023/12/29 12:43:26;;;;;;;6.13;1.33;;;11.70;99.90;;;;;;5061329;28;20416;-72
2023/12/29 12:46:12;;;;;;;3.17;1.50;;;11.70;99.90;;;;;;5060031;28;20463;-73
2023/12/29 12:49:00;;;;;;;4.90;2.80;;;11.70;99.90;;;;;;5052045;28;20947;-73
2023/12/29 12:51:46;;;;;;;3.80;1.93;;;11.70;99.90;;;;;;5059742;28;20577;-73
2023/12/29 12:54:32;;;;;;;4.00;1.50;;;11.70;99.90;;;;;;5062893;28;20534;-73
2023/12/29 12:57:21;;;;;;;4.00;1.73;;;11.70;99.90;;;;;;5064991;28;20459;-73
2023/12/29 13:00:10;;;;;;;3.30;1.30;;;11.80;99.90;;;;;;5067391;28;20539;-73
2023/12/29 13:02:55;;;;;;;2.17;1.20;;;11.80;99.90;;;;;;5055440;28;20426;-73
2023/12/29 13:05:41;;;;;;;2.00;1.33;;;11.80;99.90;;;;;;5068711;28;20889;-72
2023/12/29 13:08:27;;;;;;;4.20;2.43;;;11.80;99.90;;;;;;5066486;28;20400;-73
2023/12/29 13:11:13;;;;;;;3.83;1.07;;;11.80;99.90;;;;;;5068825;28;20460;-73
2023/12/29 13:14:02;;;;;;;8.23;3.37;;;11.80;99.90;;;;;;5067298;28;20425;-73
2023/12/29 13:16:50;;;;;;;3.87;2.37;;;11.80;99.90;;;;;;5068558;28;20812;-73
2023/12/29 13:19:35;;;;;;;8.57;5.60;;;11.90;99.90;;;;;;5059238;28;20868;-73
2023/12/29 13:22:22;;;;;;;6.63;3.00;;;11.90;99.90;;;;;;5057968;28;20948;-73
2023/12/29 13:25:08;;;;;;;3.63;1.37;;;11.90;99.90;;;;;;5071022;28;20408;-73
2023/12/29 13:27:55;;;;;;;1.60;0.73;;;11.90;99.90;;;;;;5067236;28;20430;-73
2023/12/29 13:30:41;;;;;;;2.37;1.50;;;11.90;99.90;;;;;;5063616;28;20474;-73
2023/12/29 13:33:34;;;;;;;2.20;1.50;;;12.00;99.90;;;;;;5063961;28;20932;-73
2023/12/29 13:36:26;;;;;;;3.30;1.37;;;11.90;99.90;;;;;;5058303;28;20458;-73
2023/12/29 13:39:21;;;;;;;3.33;1.70;;;12.00;99.90;;;;;;5066801;28;20856;-73
2023/12/29 13:42:10;;;;;;;2.70;1.60;;;11.90;99.90;;;;;;5057734;28;20469;-74
2023/12/29 13:44:56;;;;;;;4.50;1.63;;;11.90;99.90;;;;;;5056500;28;20422;-73
2023/12/29 13:47:42;;;;;;;2.97;1.60;;;11.90;99.90;;;;;;5068519;28;20408;-73
2023/12/29 13:50:29;;;;;;;3.20;1.70;;;11.90;99.90;;;;;;5061958;28;20465;-74
2023/12/29 13:53:18;;;;;;;5.47;1.97;;;11.90;99.90;;;;;;5057413;28;20435;-72
2023/12/29 13:56:08;;;;;;;4.13;2.13;;;11.90;99.90;;;;;;5057454;28;20429;-73
2023/12/29 13:58:53;;;;;;;2.47;1.70;;;11.90;99.90;;;;;;5055189;28;20501;-73
2023/12/29 14:01:39;;;;;;;3.20;1.90;;;11.90;99.90;;;;;;5065334;28;20528;-73
2023/12/29 14:04:25;;;;;;;4.03;2.47;;;11.90;99.90;;;;;;5065825;28;20542;-73
2023/12/29 14:07:14;;;;;;;2.50;1.73;;;11.90;99.90;;;;;;5060721;28;20430;-73
2023/12/29 14:10:01;;;;;;;2.30;1.73;;;11.90;99.90;;;;;;5059857;28;20567;-73
2023/12/29 14:12:46;;;;;;;3.40;2.13;;;11.90;99.90;;;;;;5070866;28;20418;-73
2023/12/29 14:15:36;;;;;;;6.13;2.40;;;11.80;99.90;;;;;;5065933;28;20451;-73
2023/12/29 14:18:53;;;;;;;4.03;1.83;;;11.80;99.90;;;;;;5064929;28;20429;-73
2023/12/29 14:21:39;;;;;;;3.37;1.53;;;11.80;99.90;;;;;;5060537;28;20449;-72
2023/12/29 14:24:25;;;;;;;2.50;1.70;;;11.80;99.90;;;;;;5065228;28;20429;-73
2023/12/29 14:27:13;;;;;;;2.97;1.67;;;11.80;99.90;;;;;;5067992;28;20437;-73
2023/12/29 14:29:59;;;;;;;3.10;1.70;;;11.70;99.90;;;;;;5058037;28;20421;-72
2023/12/29 14:32:44;;;;;;;2.33;1.50;;;11.70;99.90;;;;;;5067323;28;20437;-73